createdAt,value
2022-08-24T00:00:53.457Z,23.62
2022-08-24T00:03:20.898Z,23.71
2022-08-24T00:05:48.300Z,23.72
2022-08-24T00:08:14.779Z,23.62
2022-08-24T00:10:41.234Z,23.51
2022-08-24T00:13:08.541Z,23.31
2022-08-24T00:15:35.869Z,23.05
2022-08-24T00:18:02.377Z,22.85
2022-08-24T00:20:28.910Z,23.33
2022-08-24T00:22:55.423Z,23.38
2022-08-24T00:25:21.849Z,23.21
2022-08-24T00:27:49.117Z,23.59
2022-08-24T00:30:16.388Z,23.61
2022-08-24T00:32:42.833Z,23.00
2022-08-24T00:35:10.151Z,23.05
2022-08-24T00:37:37.459Z,23.25
2022-08-24T00:40:03.948Z,23.32
2022-08-24T00:42:32.258Z,23.48
2022-08-24T00:44:59.601Z,23.42
2022-08-24T00:47:26.065Z,23.11
2022-08-24T00:49:53.336Z,23.25
2022-08-24T00:52:19.851Z,23.44
2022-08-24T00:54:46.707Z,23.51
2022-08-24T00:57:14.114Z,23.52
2022-08-24T00:59:40.566Z,23.39
2022-08-24T01:02:15.102Z,23.02
2022-08-24T01:04:42.416Z,23.15
2022-08-24T01:07:08.850Z,22.97
2022-08-24T01:09:35.300Z,22.33
2022-08-24T01:12:02.621Z,22.75
2022-08-24T01:14:29.093Z,22.86
2022-08-24T01:16:56.469Z,23.07
2022-08-24T01:19:22.937Z,22.70
2022-08-24T01:21:50.179Z,22.75
2022-08-24T01:24:17.577Z,22.75
2022-08-24T01:26:44.020Z,22.81
2022-08-24T01:29:12.582Z,23.12
2022-08-24T01:31:39.913Z,23.24
2022-08-24T01:34:06.492Z,23.11
2022-08-24T01:36:33.817Z,22.87
2022-08-24T01:39:00.244Z,22.75
2022-08-24T01:41:29.106Z,22.94
2022-08-24T01:43:56.660Z,22.96
2022-08-24T01:46:24.025Z,22.64
2022-08-24T01:48:50.489Z,22.41
2022-08-24T01:51:16.956Z,22.66
2022-08-24T01:53:43.438Z,22.88
2022-08-24T01:56:09.903Z,22.96
2022-08-24T01:58:37.237Z,23.06
2022-08-24T02:01:04.605Z,23.25
2022-08-24T02:03:31.866Z,23.21
2022-08-24T02:05:58.520Z,23.29
2022-08-24T02:08:25.779Z,23.29
2022-08-24T02:10:56.365Z,23.32
2022-08-24T02:13:23.522Z,22.86
2022-08-24T02:15:50.824Z,22.15
2022-08-24T02:18:18.245Z,21.77
2022-08-24T02:20:45.497Z,21.72
2022-08-24T02:23:12.834Z,21.74
2022-08-24T02:25:39.285Z,21.49
2022-08-24T02:28:06.705Z,21.47
2022-08-24T02:30:33.174Z,21.57
2022-08-24T02:32:59.666Z,21.71
2022-08-24T02:35:26.161Z,21.92
2022-08-24T02:37:53.488Z,21.90
2022-08-24T02:40:21.027Z,21.53
2022-08-24T02:42:47.509Z,21.55
2022-08-24T02:45:13.958Z,21.85
2022-08-24T02:47:41.277Z,21.82
2022-08-24T02:50:08.602Z,21.99
2022-08-24T02:52:35.060Z,22.40
2022-08-24T02:55:01.484Z,22.81
2022-08-24T02:57:28.008Z,22.92
2022-08-24T02:59:55.324Z,22.77
2022-08-24T03:02:21.819Z,22.26
2022-08-24T03:04:49.452Z,22.33
2022-08-24T03:07:16.882Z,22.33
2022-08-24T03:09:44.166Z,22.61
2022-08-24T03:12:10.607Z,22.84
2022-08-24T03:14:37.135Z,22.84
2022-08-24T03:17:04.505Z,22.53
2022-08-24T03:19:31.847Z,22.28
2022-08-24T03:21:58.319Z,22.14
2022-08-24T03:24:24.763Z,22.29
2022-08-24T03:26:52.101Z,22.15
2022-08-24T03:29:19.478Z,22.60
2022-08-24T03:31:47.105Z,22.88
2022-08-24T03:34:13.626Z,22.92
2022-08-24T03:36:41.011Z,22.97
2022-08-24T03:39:07.466Z,22.83
2022-08-24T03:41:33.900Z,22.31
2022-08-24T03:44:03.978Z,22.14
2022-08-24T03:46:31.325Z,22.52
2022-08-24T03:48:57.781Z,22.68
2022-08-24T03:51:24.242Z,22.82
2022-08-24T03:53:50.769Z,22.98
2022-08-24T03:56:18.140Z,23.06
2022-08-24T03:58:44.585Z,23.04
2022-08-24T04:01:11.051Z,23.00
2022-08-24T04:03:38.501Z,22.96
2022-08-24T04:06:05.895Z,22.87
2022-08-24T04:08:32.340Z,22.88
2022-08-24T04:10:58.844Z,22.97
2022-08-24T04:13:26.217Z,22.72
2022-08-24T04:15:52.666Z,22.95
2022-08-24T04:18:19.118Z,22.98
2022-08-24T04:20:46.410Z,22.93
2022-08-24T04:23:13.780Z,23.04
2022-08-24T04:25:40.237Z,23.07
2022-08-24T04:28:06.730Z,22.84
2022-08-24T04:30:33.210Z,23.09
2022-08-24T04:33:00.671Z,23.30
2022-08-24T04:35:27.127Z,23.36
2022-08-24T04:37:53.579Z,23.34
2022-08-24T04:40:20.985Z,23.10
2022-08-24T04:42:47.481Z,22.79
2022-08-24T04:45:14.914Z,22.55
2022-08-24T04:47:42.269Z,22.66
2022-08-24T04:50:08.800Z,22.94
2022-08-24T04:52:36.147Z,23.19
2022-08-24T04:55:02.616Z,23.18
2022-08-24T04:57:30.010Z,23.29
2022-08-24T04:59:56.958Z,23.17
2022-08-24T05:02:23.541Z,23.05
2022-08-24T05:04:50.094Z,22.86
2022-08-24T05:07:16.562Z,22.78
2022-08-24T05:09:43.043Z,22.86
2022-08-24T05:12:09.757Z,23.10
2022-08-24T05:14:37.158Z,23.22
2022-08-24T05:17:04.774Z,23.10
2022-08-24T05:19:36.931Z,22.92
2022-08-24T05:22:04.551Z,22.98
2022-08-24T05:24:31.029Z,23.14
2022-08-24T05:26:57.493Z,23.12
2022-08-24T05:29:25.389Z,23.17
2022-08-24T05:31:51.922Z,23.26
2022-08-24T05:34:19.296Z,23.40
2022-08-24T05:36:46.637Z,23.32
2022-08-24T05:39:13.116Z,23.11
2022-08-24T05:41:41.792Z,23.41
2022-08-24T05:44:10.861Z,23.28
2022-08-24T05:46:37.338Z,23.33
2022-08-24T05:49:03.809Z,23.37
2022-08-24T05:51:30.296Z,22.81
2022-08-24T05:53:57.674Z,23.11
2022-08-24T05:56:26.675Z,23.36
2022-08-24T05:58:56.118Z,23.41
2022-08-24T06:01:23.484Z,23.43
2022-08-24T06:03:50.920Z,23.35
2022-08-24T06:06:18.304Z,23.02
2022-08-24T06:08:44.776Z,22.36
2022-08-24T06:11:11.260Z,22.74
2022-08-24T06:13:38.615Z,23.27
2022-08-24T06:16:20.835Z,23.41
2022-08-24T06:18:48.155Z,23.07
2022-08-24T06:21:16.076Z,22.48
2022-08-24T06:23:43.247Z,22.62
2022-08-24T06:26:14.707Z,23.01
2022-08-24T06:28:42.877Z,22.96
2022-08-24T06:31:09.377Z,22.96
2022-08-24T06:33:35.897Z,22.87
2022-08-24T06:36:02.381Z,23.00
2022-08-24T06:38:30.654Z,23.42
2022-08-24T06:40:57.826Z,23.51
2022-08-24T06:43:24.294Z,23.15
2022-08-24T06:45:51.590Z,23.14
2022-08-24T06:48:18.058Z,23.50
2022-08-24T06:50:45.447Z,23.39
2022-08-24T06:53:12.844Z,22.80
2022-08-24T06:55:39.329Z,22.95
2022-08-24T06:58:06.734Z,23.07
2022-08-24T07:00:33.229Z,22.75
2022-08-24T07:03:00.732Z,22.93
2022-08-24T07:05:27.421Z,23.00
2022-08-24T07:07:53.924Z,23.19
2022-08-24T07:10:23.059Z,23.36
2022-08-24T07:12:53.039Z,23.60
2022-08-24T07:15:19.510Z,23.45
2022-08-24T07:17:46.915Z,23.60
2022-08-24T07:20:14.306Z,23.66
2022-08-24T07:22:40.762Z,23.52
2022-08-24T07:25:07.232Z,23.53
2022-08-24T07:27:33.724Z,23.57
2022-08-24T07:30:25.328Z,23.77
2022-08-24T07:32:48.479Z,23.87
2022-08-24T07:35:15.850Z,23.92
2022-08-24T07:37:42.393Z,23.83
2022-08-24T07:40:08.898Z,23.92
2022-08-24T07:42:35.402Z,24.00
2022-08-24T07:45:02.795Z,24.05
2022-08-24T07:47:40.458Z,24.07
2022-08-24T07:50:10.584Z,24.04
2022-08-24T07:52:37.990Z,24.04
2022-08-24T07:55:05.403Z,24.05
2022-08-24T07:57:31.887Z,24.06
2022-08-24T07:59:58.382Z,24.13
2022-08-24T08:02:29.863Z,23.96
2022-08-24T08:05:01.489Z,23.98
2022-08-24T08:07:29.012Z,24.09
2022-08-24T08:09:55.474Z,24.05
2022-08-24T08:12:21.955Z,24.09
2022-08-24T08:14:49.364Z,24.06
2022-08-24T08:17:15.910Z,24.10
2022-08-24T08:19:43.262Z,24.22
2022-08-24T08:22:10.592Z,24.19
2022-08-24T08:24:37.060Z,24.24
2022-08-24T08:27:04.463Z,24.20
2022-08-24T08:29:30.953Z,24.16
2022-08-24T08:31:57.428Z,24.10
2022-08-24T08:34:24.814Z,24.13
2022-08-24T08:36:52.213Z,24.15
2022-08-24T08:39:18.709Z,24.24
2022-08-24T08:41:45.174Z,24.34
2022-08-24T08:44:11.665Z,24.32
2022-08-24T08:46:40.844Z,24.29
2022-08-24T08:49:07.547Z,24.39
2022-08-24T08:51:34.909Z,24.46
2022-08-24T08:54:01.354Z,24.49
2022-08-24T08:56:28.706Z,24.58
2022-08-24T08:58:57.682Z,24.62
2022-08-24T09:01:26.745Z,24.60
2022-08-24T09:04:00.160Z,24.61
2022-08-24T09:06:27.662Z,24.63
2022-08-24T09:08:55.063Z,24.70
2022-08-24T09:11:22.434Z,24.70
2022-08-24T09:13:49.830Z,24.73
2022-08-24T09:16:17.266Z,24.74
2022-08-24T09:18:44.816Z,24.74
2022-08-24T09:21:12.217Z,24.74
2022-08-24T09:23:39.583Z,24.73
2022-08-24T09:26:06.060Z,24.77
2022-08-24T09:28:33.310Z,24.76
2022-08-24T09:31:00.782Z,24.79
2022-08-24T09:33:27.260Z,24.76
2022-08-24T09:35:53.859Z,24.81
2022-08-24T09:38:20.349Z,24.84
2022-08-24T09:40:46.836Z,24.82
2022-08-24T09:43:13.338Z,24.83
2022-08-24T09:45:40.802Z,24.84
2022-08-24T09:48:07.325Z,24.86
2022-08-24T09:50:42.983Z,24.86
2022-08-24T09:53:10.094Z,24.88
2022-08-24T09:55:37.466Z,25.26
2022-08-24T09:58:04.946Z,25.42
2022-08-24T10:00:32.336Z,25.54
2022-08-24T10:02:59.716Z,25.55
2022-08-24T10:05:27.090Z,25.50
2022-08-24T10:07:53.823Z,25.55
2022-08-24T10:10:20.291Z,25.68
2022-08-24T10:12:46.757Z,25.90
2022-08-24T10:15:13.296Z,25.89
2022-08-24T10:17:39.751Z,25.88
2022-08-24T10:20:06.219Z,26.01
2022-08-24T10:22:33.616Z,25.84
2022-08-24T10:25:01.004Z,25.86
2022-08-24T10:27:28.325Z,25.96
2022-08-24T10:29:55.729Z,26.05
2022-08-24T10:32:22.186Z,26.17
2022-08-24T10:34:48.654Z,26.14
2022-08-24T10:37:15.142Z,26.18
2022-08-24T10:39:41.645Z,26.25
2022-08-24T10:42:08.144Z,26.37
2022-08-24T10:44:37.121Z,26.05
2022-08-24T10:47:04.557Z,25.72
2022-08-24T10:49:31.026Z,25.55
2022-08-24T10:51:58.376Z,25.45
2022-08-24T10:54:25.764Z,25.44
2022-08-24T10:56:53.162Z,25.48
2022-08-24T10:59:19.638Z,25.40
2022-08-24T11:01:47.095Z,25.39
2022-08-24T11:04:13.637Z,25.37
2022-08-24T11:06:40.092Z,25.37
2022-08-24T11:09:06.580Z,25.36
2022-08-24T11:11:33.975Z,25.36
2022-08-24T11:14:00.431Z,25.35
2022-08-24T11:16:27.029Z,25.35
2022-08-24T11:18:54.559Z,25.33
2022-08-24T11:21:21.955Z,25.33
2022-08-24T11:23:49.309Z,25.33
2022-08-24T11:26:16.709Z,25.37
2022-08-24T11:28:44.069Z,25.37
2022-08-24T11:31:10.574Z,25.41
2022-08-24T11:33:37.955Z,25.42
2022-08-24T11:36:04.479Z,25.43
2022-08-24T11:38:31.789Z,25.44
2022-08-24T11:40:58.215Z,25.45
2022-08-24T11:43:25.567Z,25.47
2022-08-24T11:45:52.906Z,25.46
2022-08-24T11:48:19.358Z,25.48
2022-08-24T11:50:45.818Z,25.48
2022-08-24T11:53:13.113Z,25.47
2022-08-24T11:55:46.646Z,25.49
2022-08-24T11:58:13.910Z,25.49
2022-08-24T12:00:40.335Z,25.48
2022-08-24T12:03:07.712Z,25.63
2022-08-24T12:05:35.140Z,25.89
2022-08-24T12:08:01.698Z,26.02
2022-08-24T12:10:32.118Z,26.04
2022-08-24T12:12:59.137Z,26.00
2022-08-24T12:15:26.468Z,26.02
2022-08-24T12:17:52.981Z,26.01
2022-08-24T12:20:19.447Z,26.07
2022-08-24T12:22:45.893Z,26.17
2022-08-24T12:25:12.358Z,26.17
2022-08-24T12:27:38.783Z,26.26
2022-08-24T12:30:05.780Z,26.14
2022-08-24T12:32:32.342Z,26.29
2022-08-24T12:34:59.613Z,26.30
2022-08-24T12:37:26.074Z,26.39
2022-08-24T12:39:53.450Z,26.42
2022-08-24T12:42:19.913Z,26.33
2022-08-24T12:44:46.383Z,26.45
2022-08-24T12:47:13.494Z,26.50
2022-08-24T12:49:40.106Z,26.51
2022-08-24T12:52:07.505Z,26.34
2022-08-24T12:54:33.927Z,26.18
2022-08-24T12:57:02.530Z,25.95
2022-08-24T12:59:29.175Z,25.85
2022-08-24T13:01:59.177Z,25.91
2022-08-24T13:04:25.686Z,25.83
2022-08-24T13:06:54.226Z,25.75
2022-08-24T13:09:24.318Z,25.74
2022-08-24T13:11:53.563Z,25.72
2022-08-24T13:14:20.008Z,25.67
2022-08-24T13:16:46.455Z,25.69
2022-08-24T13:19:13.722Z,25.67
2022-08-24T13:21:40.193Z,25.66
2022-08-24T13:24:06.639Z,25.64
2022-08-24T13:26:35.110Z,25.66
2022-08-24T13:29:01.598Z,25.64
2022-08-24T13:31:31.653Z,25.64
2022-08-24T13:33:58.976Z,25.61
2022-08-24T13:36:25.420Z,25.63
2022-08-24T13:38:52.511Z,25.62
2022-08-24T13:41:20.846Z,25.62
2022-08-24T13:43:48.268Z,25.59
2022-08-24T13:46:14.733Z,25.61
2022-08-24T13:48:43.112Z,25.61
2022-08-24T13:51:10.748Z,25.60
2022-08-24T13:53:37.183Z,25.59
2022-08-24T13:56:05.510Z,25.61
2022-08-24T13:58:32.248Z,25.59
2022-08-24T14:01:01.801Z,25.61
2022-08-24T14:03:28.553Z,25.59
2022-08-24T14:05:58.547Z,25.60
2022-08-24T14:08:24.964Z,25.59
2022-08-24T14:10:53.711Z,25.58
2022-08-24T14:13:26.483Z,25.61
2022-08-24T14:15:53.145Z,25.62
2022-08-24T14:18:22.406Z,25.58
2022-08-24T14:20:48.808Z,25.57
2022-08-24T14:23:17.051Z,25.57
2022-08-24T14:25:44.296Z,25.58
2022-08-24T14:28:10.793Z,25.59
2022-08-24T14:30:37.216Z,25.59
2022-08-24T14:33:03.650Z,25.59
2022-08-24T14:35:32.995Z,25.59
2022-08-24T14:38:02.131Z,25.60
2022-08-24T14:40:28.565Z,25.61
2022-08-24T14:43:02.079Z,25.63
2022-08-24T14:45:29.332Z,25.97
2022-08-24T14:47:55.749Z,26.08
2022-08-24T14:50:22.132Z,26.13
2022-08-24T14:52:48.508Z,26.18
2022-08-24T14:55:15.752Z,26.39
2022-08-24T14:57:42.221Z,26.33
2022-08-24T15:00:09.460Z,26.41
2022-08-24T15:02:36.676Z,26.37
2022-08-24T15:05:05.892Z,26.35
2022-08-24T15:07:33.135Z,26.52
2022-08-24T15:10:00.883Z,26.47
2022-08-24T15:12:27.234Z,26.47
2022-08-24T15:14:53.616Z,26.58
2022-08-24T15:17:21.822Z,26.44
2022-08-24T15:19:48.237Z,26.48
2022-08-24T15:22:14.597Z,26.63
2022-08-24T15:24:40.974Z,26.61
2022-08-24T15:27:07.339Z,26.52
2022-08-24T15:29:33.731Z,26.89
2022-08-24T15:32:01.053Z,26.18
2022-08-24T15:34:27.412Z,26.03
2022-08-24T15:36:53.809Z,25.94
2022-08-24T15:39:21.032Z,25.94
2022-08-24T15:41:47.395Z,25.93
2022-08-24T15:44:13.752Z,25.94
2022-08-24T15:46:47.875Z,25.95
2022-08-24T15:49:15.100Z,25.92
2022-08-24T15:51:42.341Z,25.90
2022-08-24T15:54:08.730Z,25.92
2022-08-24T15:56:35.255Z,25.89
2022-08-24T15:59:01.776Z,25.90
2022-08-24T16:01:29.097Z,25.92
2022-08-24T16:03:55.569Z,25.90
2022-08-24T16:06:22.803Z,25.89
2022-08-24T16:08:49.177Z,25.90
2022-08-24T16:11:16.404Z,25.90
2022-08-24T16:13:42.798Z,25.90
2022-08-24T16:16:10.028Z,25.89
2022-08-24T16:18:36.398Z,25.90
2022-08-24T16:21:03.658Z,25.89
2022-08-24T16:23:30.023Z,25.90
2022-08-24T16:25:56.386Z,25.91
2022-08-24T16:28:22.941Z,25.89
2022-08-24T16:30:50.141Z,25.90
2022-08-24T16:33:17.467Z,25.89
2022-08-24T16:35:43.849Z,25.90
2022-08-24T16:38:11.127Z,25.90
2022-08-24T16:40:37.491Z,25.90
2022-08-24T16:43:03.867Z,25.91
2022-08-24T16:45:35.343Z,25.91
2022-08-24T16:48:02.546Z,25.90
2022-08-24T16:50:29.881Z,25.91
2022-08-24T16:52:56.261Z,25.91
2022-08-24T16:55:22.684Z,25.90
2022-08-24T16:57:49.912Z,25.91
2022-08-24T17:00:16.295Z,25.90
2022-08-24T17:02:42.722Z,25.91
2022-08-24T17:05:09.153Z,25.91
2022-08-24T17:07:35.570Z,25.90
2022-08-24T17:10:01.931Z,25.91
2022-08-24T17:12:28.320Z,25.91
2022-08-24T17:14:55.923Z,25.91
2022-08-24T17:17:23.825Z,25.91
2022-08-24T17:19:51.027Z,25.90
2022-08-24T17:22:18.262Z,25.91
2022-08-24T17:24:44.619Z,25.92
2022-08-24T17:27:10.987Z,25.93
2022-08-24T17:29:37.367Z,26.14
2022-08-24T17:32:03.819Z,26.17
2022-08-24T17:34:30.296Z,26.38
2022-08-24T17:36:56.694Z,26.52
2022-08-24T17:39:23.925Z,26.53
2022-08-24T17:41:50.298Z,26.58
2022-08-24T17:44:17.534Z,26.55
2022-08-24T17:46:44.814Z,26.75
2022-08-24T17:49:11.863Z,26.72
2022-08-24T17:51:38.301Z,26.75
2022-08-24T17:54:07.580Z,26.75
2022-08-24T17:56:33.965Z,26.82
2022-08-24T17:59:04.488Z,26.60
2022-08-24T18:01:31.006Z,26.86
2022-08-24T18:03:58.321Z,26.70
2022-08-24T18:06:26.586Z,26.87
2022-08-24T18:08:53.146Z,26.57
2022-08-24T18:11:22.733Z,26.71
2022-08-24T18:13:52.994Z,26.78
2022-08-24T18:16:19.512Z,26.36
2022-08-24T18:18:49.550Z,26.14
2022-08-24T18:21:15.969Z,26.17
2022-08-24T18:23:43.922Z,26.15
2022-08-24T18:26:11.340Z,26.09
2022-08-24T18:28:38.688Z,26.07
2022-08-24T18:31:08.909Z,26.06
2022-08-24T18:33:35.486Z,26.06
2022-08-24T18:36:03.034Z,26.06
2022-08-24T18:38:30.267Z,26.02
2022-08-24T18:40:57.519Z,25.97
2022-08-24T18:43:24.796Z,25.96
2022-08-24T18:45:51.333Z,25.93
2022-08-24T18:48:17.972Z,25.86
2022-08-24T18:50:44.480Z,25.91
2022-08-24T18:53:10.922Z,26.18
2022-08-24T18:55:37.432Z,26.44
2022-08-24T18:58:04.824Z,26.54
2022-08-24T19:00:31.304Z,26.54
2022-08-24T19:02:58.701Z,26.53
2022-08-24T19:05:25.167Z,26.52
2022-08-24T19:07:52.472Z,26.65
2022-08-24T19:10:18.998Z,26.77
2022-08-24T19:12:46.693Z,26.64
2022-08-24T19:15:35.734Z,26.84
2022-08-24T19:18:01.934Z,27.01
2022-08-24T19:20:28.537Z,27.00
2022-08-24T19:22:57.310Z,26.97
2022-08-24T19:25:23.800Z,26.21
2022-08-24T19:27:53.648Z,26.62
2022-08-24T19:30:20.375Z,26.08
2022-08-24T19:32:46.865Z,26.00
2022-08-24T19:35:14.181Z,25.80
2022-08-24T19:37:40.641Z,25.61
2022-08-24T19:40:07.217Z,25.70
2022-08-24T19:42:34.695Z,25.97
2022-08-24T19:45:03.143Z,25.97
2022-08-24T19:47:30.962Z,25.82
2022-08-24T19:49:57.414Z,25.79
2022-08-24T19:52:24.736Z,25.77
2022-08-24T19:54:52.199Z,25.65
2022-08-24T19:57:19.600Z,25.66
2022-08-24T19:59:46.903Z,25.55
2022-08-24T20:02:13.381Z,25.46
2022-08-24T20:04:39.924Z,25.34
2022-08-24T20:07:07.196Z,25.33
2022-08-24T20:09:33.660Z,25.33
2022-08-24T20:12:00.908Z,25.35
2022-08-24T20:14:27.323Z,25.27
2022-08-24T20:16:55.641Z,25.16
2022-08-24T20:19:23.933Z,25.28
2022-08-24T20:21:50.430Z,25.40
2022-08-24T20:24:17.684Z,25.67
2022-08-24T20:26:44.078Z,25.74
2022-08-24T20:29:10.457Z,25.93
2022-08-24T20:31:38.644Z,26.27
2022-08-24T20:34:05.959Z,26.33
2022-08-24T20:36:32.327Z,26.13
2022-08-24T20:38:58.725Z,26.55
2022-08-24T20:41:25.114Z,26.24
2022-08-24T20:43:54.304Z,26.21
2022-08-24T20:46:20.722Z,25.82
2022-08-24T20:48:47.154Z,25.90
2022-08-24T20:51:22.190Z,25.99
2022-08-24T20:53:48.548Z,26.29
2022-08-24T20:56:16.286Z,26.44
2022-08-24T20:58:42.658Z,26.32
2022-08-24T21:01:10.012Z,25.46
2022-08-24T21:03:36.625Z,25.03
2022-08-24T21:06:03.909Z,26.15
2022-08-24T21:11:14.161Z,25.48
2022-08-24T21:13:40.686Z,25.15
2022-08-24T21:16:07.969Z,25.12
2022-08-24T21:18:34.650Z,24.91
2022-08-24T21:21:04.299Z,25.03
2022-08-24T21:26:15.134Z,24.84
2022-08-24T21:28:42.368Z,24.75
2022-08-24T21:31:11.693Z,24.72
2022-08-24T21:33:40.004Z,24.61
2022-08-24T21:36:06.396Z,24.59
2022-08-24T21:41:27.579Z,24.64
2022-08-24T21:43:53.970Z,24.56
2022-08-24T21:46:20.376Z,24.51
2022-08-24T21:48:46.949Z,24.61
2022-08-24T21:51:14.222Z,24.56
2022-08-24T21:56:28.279Z,24.38
2022-08-24T21:58:54.642Z,24.17
2022-08-24T22:01:21.139Z,24.44
2022-08-24T22:03:48.434Z,24.51
2022-08-24T22:06:14.820Z,24.42
2022-08-24T22:11:25.133Z,24.24
2022-08-24T22:13:51.521Z,24.13
2022-08-24T22:16:17.973Z,24.17
2022-08-24T22:18:45.248Z,23.97
2022-08-24T22:21:13.479Z,24.04
2022-08-24T22:26:23.691Z,23.98
2022-08-24T22:28:50.925Z,23.95
2022-08-24T22:31:17.361Z,23.99
2022-08-24T22:33:43.770Z,24.15
2022-08-24T22:36:11.073Z,24.18
2022-08-24T22:41:22.183Z,24.24
2022-08-24T22:43:51.194Z,24.22
2022-08-24T22:46:18.664Z,24.18
2022-08-24T22:48:45.969Z,24.34
2022-08-24T22:51:13.197Z,24.24
2022-08-24T22:56:33.528Z,24.12
2022-08-24T22:59:01.746Z,24.25
2022-08-24T23:01:28.141Z,24.18
2022-08-24T23:03:54.556Z,24.10
2022-08-24T23:06:21.014Z,24.18
2022-08-24T23:11:32.461Z,24.12
2022-08-24T23:13:58.832Z,24.16
2022-08-24T23:16:26.131Z,24.09
2022-08-24T23:18:52.524Z,24.05
2022-08-24T23:21:18.896Z,24.06
2022-08-24T23:26:29.352Z,24.06
2022-08-24T23:28:55.727Z,24.03
2022-08-24T23:31:22.178Z,24.12
2022-08-24T23:33:48.621Z,24.08
2022-08-24T23:36:15.929Z,24.08
2022-08-24T23:41:26.250Z,24.13
2022-08-24T23:43:52.609Z,24.23
2022-08-24T23:46:19.015Z,24.25
2022-08-24T23:48:55.278Z,24.19
2022-08-24T23:51:22.654Z,24.04
2022-08-24T23:56:43.536Z,24.13
2022-08-24T23:59:09.929Z,24.10
